createdAt,value
2022-10-03T00:01:12.034Z,9.60
2022-10-03T00:03:45.954Z,14.38
2022-10-03T00:06:23.127Z,11.38
2022-10-03T00:09:08.243Z,13.48
2022-10-03T00:11:56.661Z,12.40
2022-10-03T00:14:45.140Z,11.15
2022-10-03T00:17:30.010Z,14.27
2022-10-03T00:20:08.178Z,16.05
2022-10-03T00:22:48.021Z,9.40
2022-10-03T00:25:48.991Z,15.90
2022-10-03T00:28:18.755Z,11.98
2022-10-03T00:31:04.074Z,11.02
2022-10-03T00:33:48.447Z,18.27
2022-10-03T00:36:49.787Z,16.13
2022-10-03T00:39:42.532Z,15.05
2022-10-03T00:42:28.198Z,17.65
2022-10-03T00:45:42.842Z,21.58
2022-10-03T00:48:34.594Z,12.15
2022-10-03T00:51:24.457Z,12.38
2022-10-03T00:54:20.263Z,14.98
2022-10-03T00:57:04.851Z,13.40
2022-10-03T00:59:53.424Z,20.92
2022-10-03T01:02:29.663Z,19.13
2022-10-03T01:05:09.574Z,24.42
2022-10-03T01:07:56.902Z,17.60
2022-10-03T01:10:35.128Z,17.23
2022-10-03T01:13:32.768Z,17.52
2022-10-03T01:16:28.791Z,18.10
2022-10-03T01:19:33.411Z,18.83
2022-10-03T01:22:17.904Z,19.70
2022-10-03T01:25:06.397Z,17.42
2022-10-03T01:28:26.232Z,24.52
2022-10-03T01:30:59.368Z,21.80
2022-10-03T01:33:33.644Z,25.65
2022-10-03T01:36:15.970Z,23.08
2022-10-03T01:38:53.647Z,18.90
2022-10-03T01:41:42.678Z,20.38
2022-10-03T01:44:16.474Z,20.85
2022-10-03T01:46:54.537Z,19.17
2022-10-03T01:49:58.161Z,19.60
2022-10-03T01:52:37.180Z,23.02
2022-10-03T01:55:22.868Z,23.58
2022-10-03T01:58:01.652Z,31.45
2022-10-03T02:00:47.260Z,21.50
2022-10-03T02:03:49.709Z,31.48
2022-10-03T02:06:53.711Z,29.33
2022-10-03T02:09:33.456Z,32.65
2022-10-03T02:12:17.264Z,34.75
2022-10-03T02:15:01.154Z,27.00
2022-10-03T02:17:52.341Z,30.05
2022-10-03T02:20:26.451Z,43.63
2022-10-03T02:22:56.332Z,32.28
2022-10-03T02:26:00.059Z,27.75
2022-10-03T02:29:06.212Z,31.58
2022-10-03T02:31:57.546Z,30.58
2022-10-03T02:35:02.154Z,26.83
2022-10-03T02:37:41.168Z,28.27
2022-10-03T02:40:22.968Z,38.50
2022-10-03T02:43:20.377Z,32.63
2022-10-03T02:46:27.703Z,28.20
2022-10-03T02:49:22.821Z,32.55
2022-10-03T02:51:52.366Z,36.78
2022-10-03T02:54:53.478Z,32.63
2022-10-03T02:57:20.226Z,32.95
2022-10-03T03:00:09.089Z,31.75
2022-10-03T03:03:01.344Z,35.78
2022-10-03T03:06:05.996Z,34.17
2022-10-03T03:08:50.879Z,31.48
2022-10-03T03:11:40.671Z,31.63
2022-10-03T03:14:26.741Z,39.22
2022-10-03T03:17:23.380Z,37.28
2022-10-03T03:20:08.323Z,35.80
2022-10-03T03:22:35.339Z,45.03
2022-10-03T03:25:29.184Z,40.70
2022-10-03T03:28:12.903Z,36.00
2022-10-03T03:31:03.363Z,46.40
2022-10-03T03:33:50.139Z,47.78
2022-10-03T03:36:51.566Z,48.22
2022-10-03T03:39:42.482Z,42.90
2022-10-03T03:42:40.274Z,42.65
2022-10-03T03:45:29.681Z,47.83
2022-10-03T03:48:12.255Z,49.47
2022-10-03T03:50:45.602Z,45.55
2022-10-03T03:53:37.454Z,45.40
2022-10-03T03:56:40.473Z,48.55
2022-10-03T03:59:07.228Z,48.10
2022-10-03T04:01:46.396Z,39.97
2022-10-03T04:04:35.065Z,36.30
2022-10-03T04:07:37.604Z,35.55
2022-10-03T04:10:16.336Z,37.42
2022-10-03T04:13:19.272Z,35.45
2022-10-03T04:15:56.116Z,36.63
2022-10-03T04:19:04.387Z,35.90
2022-10-03T04:21:49.072Z,35.30
2022-10-03T04:24:47.543Z,35.50
2022-10-03T04:27:40.699Z,35.63
2022-10-03T04:30:22.067Z,35.85
2022-10-03T04:33:18.357Z,35.85
2022-10-03T04:38:53.014Z,33.25
2022-10-03T04:41:31.432Z,31.38
2022-10-03T04:44:04.013Z,34.75
2022-10-03T04:46:43.396Z,36.53
2022-10-03T04:49:16.376Z,33.00
2022-10-03T04:52:00.904Z,38.42
2022-10-03T04:54:43.443Z,29.48
2022-10-03T04:57:18.704Z,36.65
2022-10-03T04:59:54.965Z,37.15
2022-10-03T05:02:40.838Z,37.58
2022-10-03T05:07:43.633Z,36.42
2022-10-03T05:10:52.359Z,40.95
2022-10-03T05:13:34.323Z,45.40
2022-10-03T05:16:10.087Z,44.60
2022-10-03T05:19:16.480Z,46.80
2022-10-03T05:21:46.015Z,47.00
2022-10-03T05:24:23.821Z,43.17
2022-10-03T05:27:05.487Z,35.33
2022-10-03T05:29:37.457Z,42.42
2022-10-03T05:32:34.262Z,47.30
2022-10-03T05:35:13.635Z,49.40
2022-10-03T05:37:50.628Z,29.38
2022-10-03T05:40:36.330Z,34.40
2022-10-03T05:43:42.832Z,47.10
2022-10-03T05:46:47.353Z,36.25
2022-10-03T05:49:52.933Z,39.35
2022-10-03T05:52:54.093Z,34.70
2022-10-03T05:55:35.799Z,30.58
2022-10-03T05:58:31.729Z,35.38
2022-10-03T06:01:22.889Z,35.13
2022-10-03T06:04:05.118Z,41.28
2022-10-03T06:06:32.804Z,26.05
2022-10-03T06:09:16.389Z,29.95
2022-10-03T06:12:05.523Z,29.33
2022-10-03T06:15:10.084Z,30.65
2022-10-03T06:18:01.708Z,25.30
2022-10-03T06:20:51.917Z,30.25
2022-10-03T06:23:33.812Z,27.27
2022-10-03T06:26:12.886Z,27.58
2022-10-03T06:28:58.507Z,32.05
2022-10-03T06:32:09.978Z,29.35
2022-10-03T06:35:04.681Z,26.10
2022-10-03T06:37:31.469Z,27.00
2022-10-03T06:40:42.708Z,23.05
2022-10-03T06:43:31.634Z,28.95
2022-10-03T06:46:22.720Z,32.10
2022-10-03T06:48:49.557Z,29.83
2022-10-03T06:51:45.615Z,27.08
2022-10-03T06:57:08.082Z,33.25
2022-10-03T06:59:49.781Z,40.63
2022-10-03T07:02:16.742Z,34.47
2022-10-03T07:04:55.935Z,38.17
2022-10-03T07:07:50.279Z,45.53
2022-10-03T07:10:54.993Z,27.77
2022-10-03T07:13:31.046Z,36.70
2022-10-03T07:16:51.648Z,33.28
2022-10-03T07:19:20.109Z,31.13
2022-10-03T07:22:04.707Z,41.42
2022-10-03T07:24:44.994Z,40.63
2022-10-03T07:27:27.299Z,43.67
2022-10-03T07:30:07.779Z,41.45
2022-10-03T07:33:06.048Z,39.90
2022-10-03T07:36:04.097Z,39.45
2022-10-03T07:38:59.699Z,43.58
2022-10-03T07:41:57.679Z,40.03
2022-10-03T07:44:52.474Z,49.47
2022-10-03T07:47:52.396Z,43.78
2022-10-03T07:50:39.242Z,46.63
2022-10-03T07:53:24.708Z,47.28
2022-10-03T07:56:08.633Z,50.35
2022-10-03T07:58:56.677Z,38.65
2022-10-03T08:01:54.702Z,45.50
2022-10-03T08:04:38.709Z,36.67
2022-10-03T08:07:42.993Z,33.47
2022-10-03T08:10:51.559Z,32.25
2022-10-03T08:13:55.872Z,37.25
2022-10-03T08:16:56.108Z,36.38
2022-10-03T08:19:46.561Z,24.02
2022-10-03T08:22:25.935Z,32.58
2022-10-03T08:25:02.864Z,29.52
2022-10-03T08:27:48.940Z,36.65
2022-10-03T08:30:23.227Z,24.85
2022-10-03T08:33:23.621Z,32.30
2022-10-03T08:36:09.173Z,31.38
2022-10-03T08:38:57.488Z,28.63
2022-10-03T08:42:03.119Z,28.95
2022-10-03T08:44:41.906Z,23.77
2022-10-03T08:47:08.702Z,19.85
2022-10-03T08:50:24.664Z,25.13
2022-10-03T08:53:13.447Z,23.00
2022-10-03T08:56:11.574Z,20.98
2022-10-03T08:59:09.558Z,18.85
2022-10-03T09:01:54.528Z,23.15
2022-10-03T09:04:55.123Z,24.00
2022-10-03T09:07:46.656Z,16.63
2022-10-03T09:10:33.833Z,20.27
2022-10-03T09:13:32.943Z,23.33
2022-10-03T09:16:35.678Z,17.40
2022-10-03T09:19:21.137Z,16.50
2022-10-03T09:22:13.889Z,16.05
2022-10-03T09:24:55.925Z,19.73
2022-10-03T09:27:57.902Z,20.45
2022-10-03T09:31:04.936Z,16.10
2022-10-03T09:33:50.834Z,23.45
2022-10-03T09:36:49.849Z,21.25
2022-10-03T09:39:38.165Z,26.17
2022-10-03T09:42:13.963Z,19.27
2022-10-03T09:45:01.885Z,21.73
2022-10-03T09:47:51.657Z,21.95
2022-10-03T09:51:09.334Z,20.08
2022-10-03T09:53:59.522Z,23.50
2022-10-03T09:56:26.397Z,16.33
2022-10-03T09:59:21.390Z,20.73
2022-10-03T10:02:28.621Z,13.52
2022-10-03T10:05:15.018Z,18.15
2022-10-03T10:07:44.566Z,16.58
2022-10-03T10:10:48.806Z,17.65
2022-10-03T10:14:07.142Z,22.05
2022-10-03T10:16:38.027Z,17.00
2022-10-03T10:19:40.070Z,19.92
2022-10-03T10:22:38.780Z,19.17
2022-10-03T10:25:05.643Z,19.27
2022-10-03T10:27:55.164Z,19.30
2022-10-03T10:31:10.269Z,13.63
2022-10-03T10:33:55.111Z,18.02
2022-10-03T10:37:00.177Z,19.23
2022-10-03T10:39:45.741Z,19.02
2022-10-03T10:43:08.332Z,13.32
2022-10-03T10:45:57.881Z,20.83
2022-10-03T10:48:36.840Z,17.65
2022-10-03T10:51:41.603Z,16.92
2022-10-03T10:54:30.259Z,17.73
2022-10-03T10:57:25.711Z,16.75
2022-10-03T11:00:16.925Z,14.83
2022-10-03T11:03:05.232Z,20.67
2022-10-03T11:05:35.218Z,11.68
2022-10-03T11:08:37.401Z,18.10
2022-10-03T11:11:16.669Z,12.38
2022-10-03T11:14:15.383Z,17.00
2022-10-03T11:16:55.428Z,11.77
2022-10-03T11:19:58.254Z,8.68
2022-10-03T11:22:40.306Z,10.60
2022-10-03T11:25:26.494Z,11.82
2022-10-03T11:28:02.426Z,15.95
2022-10-03T11:30:53.387Z,11.68
2022-10-03T11:34:01.730Z,15.15
2022-10-03T11:36:55.928Z,13.35
2022-10-03T11:39:39.980Z,13.32
2022-10-03T11:42:24.627Z,13.18
2022-10-03T11:45:20.860Z,11.02
2022-10-03T11:48:01.241Z,9.68
2022-10-03T11:50:43.297Z,15.25
2022-10-03T11:53:41.330Z,13.88
2022-10-03T11:56:20.864Z,18.42
2022-10-03T11:59:03.126Z,12.68
2022-10-03T12:01:43.151Z,12.85
2022-10-03T12:04:39.863Z,16.13
2022-10-03T12:07:46.585Z,14.25
2022-10-03T12:10:45.721Z,12.23
2022-10-03T12:13:33.627Z,13.48
2022-10-03T12:16:02.982Z,11.18
2022-10-03T12:18:45.002Z,10.55
2022-10-03T12:21:11.866Z,12.55
2022-10-03T12:23:53.860Z,11.18
2022-10-03T12:26:37.478Z,25.17
2022-10-03T12:29:08.918Z,9.30
2022-10-03T12:32:05.917Z,8.85
2022-10-03T12:35:10.506Z,14.20
2022-10-03T12:37:55.394Z,14.25
2022-10-03T12:40:38.589Z,9.93
2022-10-03T12:43:20.779Z,8.15
2022-10-03T12:46:02.714Z,10.25
2022-10-03T12:48:44.001Z,9.10
2022-10-03T12:51:27.723Z,8.20
2022-10-03T12:54:39.350Z,11.30
2022-10-03T12:57:46.418Z,8.77
2022-10-03T13:00:28.717Z,14.00
2022-10-03T13:03:20.655Z,7.00
2022-10-03T13:06:07.127Z,9.43
2022-10-03T13:08:43.359Z,13.93
2022-10-03T13:11:25.754Z,11.82
2022-10-03T13:14:11.143Z,7.43
2022-10-03T13:17:09.883Z,12.50
2022-10-03T13:20:16.407Z,13.90
2022-10-03T13:22:58.304Z,16.00
2022-10-03T13:25:46.755Z,11.63
2022-10-03T13:28:26.744Z,6.93
2022-10-03T13:31:15.287Z,10.00
2022-10-03T13:33:48.783Z,14.88
2022-10-03T13:36:25.153Z,11.27
2022-10-03T13:39:26.093Z,8.45
2022-10-03T13:42:15.006Z,13.90
2022-10-03T13:44:58.698Z,12.00
2022-10-03T13:47:42.364Z,10.27
2022-10-03T13:50:29.043Z,8.10
2022-10-03T13:53:08.411Z,9.57
2022-10-03T13:55:58.535Z,9.35
2022-10-03T13:58:58.080Z,14.07
2022-10-03T14:01:59.634Z,9.68
2022-10-03T14:04:46.776Z,17.60
2022-10-03T14:07:27.047Z,7.82
2022-10-03T14:10:26.463Z,9.68
2022-10-03T14:13:02.402Z,7.15
2022-10-03T14:15:58.078Z,10.10
2022-10-03T14:18:44.050Z,7.93
2022-10-03T14:21:42.206Z,8.25
2022-10-03T14:24:36.993Z,12.73
2022-10-03T14:27:27.762Z,12.65
2022-10-03T14:30:04.335Z,11.02
2022-10-03T14:33:02.369Z,11.80
2022-10-03T14:35:46.073Z,11.05
2022-10-03T14:38:45.076Z,11.32
2022-10-03T14:41:35.306Z,8.20
2022-10-03T14:44:12.967Z,8.85
2022-10-03T14:46:50.575Z,11.30
2022-10-03T14:49:50.961Z,11.15
2022-10-03T14:52:33.609Z,8.63
2022-10-03T14:55:18.495Z,14.15
2022-10-03T14:58:09.960Z,8.88
2022-10-03T15:00:45.822Z,13.85
2022-10-03T15:03:21.603Z,17.05
2022-10-03T15:06:02.072Z,12.63
2022-10-03T15:08:44.266Z,12.20
2022-10-03T15:11:14.699Z,13.00
2022-10-03T15:13:50.893Z,13.88
2022-10-03T15:16:21.490Z,10.20
2022-10-03T15:19:00.303Z,9.05
2022-10-03T15:21:29.873Z,10.25
2022-10-03T15:24:02.408Z,13.95
2022-10-03T15:26:34.884Z,8.98
2022-10-03T15:29:06.096Z,9.32
2022-10-03T15:31:34.704Z,9.27
2022-10-03T15:34:06.635Z,9.48
2022-10-03T15:36:40.009Z,7.25
2022-10-03T15:39:21.457Z,9.50
2022-10-03T15:42:20.363Z,6.28
2022-10-03T15:44:54.526Z,8.23
2022-10-03T15:47:28.120Z,8.43
2022-10-03T15:49:59.495Z,6.35
2022-10-03T15:52:44.579Z,9.40
2022-10-03T15:55:20.366Z,7.00
2022-10-03T15:57:50.720Z,10.30
2022-10-03T16:00:32.064Z,8.10
2022-10-03T16:03:18.530Z,7.85
2022-10-03T16:06:13.815Z,7.38
2022-10-03T16:08:53.126Z,13.93
2022-10-03T16:11:27.323Z,6.55
2022-10-03T16:13:57.104Z,8.35
2022-10-03T16:16:41.711Z,9.68
2022-10-03T16:19:23.849Z,9.05
2022-10-03T16:22:17.419Z,9.63
2022-10-03T16:25:18.822Z,9.95
2022-10-03T16:28:00.887Z,8.05
2022-10-03T16:30:50.847Z,8.95
2022-10-03T16:33:23.840Z,14.85
2022-10-03T16:36:07.026Z,12.82
2022-10-03T16:38:38.379Z,12.80
2022-10-03T16:41:17.335Z,7.57
2022-10-03T16:43:56.594Z,8.77
2022-10-03T16:46:25.257Z,11.10
2022-10-03T16:49:14.530Z,14.43
2022-10-03T16:51:59.393Z,7.90
2022-10-03T16:54:28.860Z,14.00
2022-10-03T16:57:00.793Z,12.38
2022-10-03T16:59:31.143Z,11.18
2022-10-03T17:02:05.543Z,9.70
2022-10-03T17:04:39.121Z,10.25
2022-10-03T17:07:23.577Z,10.00
2022-10-03T17:09:52.364Z,10.43
2022-10-03T17:12:37.161Z,9.63
2022-10-03T17:15:14.875Z,13.73
2022-10-03T17:18:00.108Z,14.85
2022-10-03T17:20:50.485Z,11.38
2022-10-03T17:23:20.209Z,14.45
2022-10-03T17:26:05.622Z,18.25
2022-10-03T17:28:48.275Z,10.95
2022-10-03T17:31:23.602Z,13.35
2022-10-03T17:34:03.181Z,14.38
2022-10-03T17:36:44.677Z,15.73
2022-10-03T17:39:44.135Z,13.00
2022-10-03T17:42:53.511Z,15.15
2022-10-03T17:45:30.651Z,12.05
2022-10-03T17:48:12.114Z,15.38
2022-10-03T17:50:52.743Z,15.25
2022-10-03T17:53:24.528Z,15.70
2022-10-03T17:55:58.312Z,32.20
2022-10-03T17:58:29.573Z,15.43
2022-10-03T18:01:16.589Z,16.27
2022-10-03T18:03:51.019Z,13.82
2022-10-03T18:06:20.859Z,13.90
2022-10-03T18:08:50.532Z,12.38
2022-10-03T18:11:25.167Z,19.15
2022-10-03T18:14:00.039Z,17.77
2022-10-03T18:16:37.071Z,15.77
2022-10-03T18:19:21.790Z,19.17
2022-10-03T18:22:18.432Z,12.52
2022-10-03T18:24:48.283Z,17.05
2022-10-03T18:27:33.842Z,16.30
2022-10-03T18:30:47.373Z,15.73
2022-10-03T18:33:19.071Z,15.50
2022-10-03T18:35:48.847Z,19.38
2022-10-03T18:38:28.593Z,25.85
2022-10-03T18:41:00.399Z,18.40
2022-10-03T18:43:46.262Z,19.08
2022-10-03T18:46:19.212Z,26.40
2022-10-03T18:49:33.474Z,21.30
2022-10-03T18:52:14.553Z,24.55
2022-10-03T18:54:57.893Z,20.17
2022-10-03T18:57:44.236Z,19.38
2022-10-03T19:00:25.772Z,19.02
2022-10-03T19:03:21.815Z,18.10
2022-10-03T19:06:00.339Z,15.50
2022-10-03T19:08:29.776Z,19.17
2022-10-03T19:11:30.070Z,22.50
2022-10-03T19:14:27.544Z,16.75
2022-10-03T19:17:34.365Z,20.77
2022-10-03T19:22:41.097Z,14.63
2022-10-03T19:25:19.211Z,18.58
2022-10-03T19:27:52.426Z,18.52
2022-10-03T19:30:25.514Z,17.23
2022-10-03T19:33:09.475Z,18.20
2022-10-03T19:35:45.214Z,18.23
2022-10-03T19:38:18.340Z,18.25
2022-10-03T19:40:56.461Z,19.83
2022-10-03T19:43:43.606Z,18.33
2022-10-03T19:46:28.951Z,20.77
2022-10-03T19:48:58.785Z,16.38
2022-10-03T19:51:27.095Z,14.32
2022-10-03T19:53:57.305Z,19.73
2022-10-03T19:56:30.877Z,19.23
2022-10-03T19:59:13.860Z,20.58
2022-10-03T20:01:49.383Z,23.77
2022-10-03T20:04:32.161Z,17.58
2022-10-03T20:06:59.390Z,19.05
2022-10-03T20:09:28.444Z,17.20
2022-10-03T20:12:00.296Z,19.67
2022-10-03T20:14:34.065Z,17.33
2022-10-03T20:17:14.150Z,18.77
2022-10-03T20:19:57.253Z,26.08
2022-10-03T20:22:27.172Z,20.75
2022-10-03T20:24:54.558Z,20.27
2022-10-03T20:27:51.508Z,21.40
2022-10-03T20:30:35.956Z,20.27
2022-10-03T20:33:04.250Z,17.65
2022-10-03T20:35:51.015Z,22.55
2022-10-03T20:38:36.063Z,19.85
2022-10-03T20:41:10.583Z,18.67
2022-10-03T20:43:49.671Z,20.97
2022-10-03T20:46:52.559Z,21.33
2022-10-03T20:49:39.181Z,20.67
2022-10-03T20:52:20.558Z,26.30
2022-10-03T20:54:50.375Z,27.23
2022-10-03T20:57:43.852Z,25.23
2022-10-03T21:00:23.184Z,25.40
2022-10-03T21:03:36.325Z,25.33
2022-10-03T21:06:14.227Z,26.48
2022-10-03T21:08:42.299Z,31.25
2022-10-03T21:11:11.864Z,30.77
2022-10-03T21:14:01.555Z,29.42
2022-10-03T21:16:34.355Z,26.45
2022-10-03T21:19:15.320Z,30.40
2022-10-03T21:21:54.842Z,28.15
2022-10-03T21:24:47.494Z,25.80
2022-10-03T21:27:16.623Z,29.60
2022-10-03T21:29:56.886Z,27.63
2022-10-03T21:32:47.106Z,34.72
2022-10-03T21:35:16.994Z,28.50
2022-10-03T21:37:49.169Z,23.38
2022-10-03T21:40:53.585Z,21.85
2022-10-03T21:43:20.394Z,19.90
2022-10-03T21:46:17.053Z,27.35
2022-10-03T21:49:02.686Z,26.48
2022-10-03T21:51:48.076Z,29.65
2022-10-03T21:54:40.162Z,26.88
2022-10-03T21:57:25.738Z,21.95
2022-10-03T22:00:11.925Z,26.55
2022-10-03T22:02:41.634Z,24.23
2022-10-03T22:05:17.314Z,25.00
2022-10-03T22:07:45.500Z,28.52
2022-10-03T22:10:21.663Z,23.70
2022-10-03T22:13:05.455Z,26.20
2022-10-03T22:15:55.905Z,29.13
2022-10-03T22:18:22.792Z,26.02
2022-10-03T22:21:23.329Z,26.70
2022-10-03T22:24:22.026Z,27.77
2022-10-03T22:27:03.831Z,26.13
2022-10-03T22:29:39.127Z,29.25
2022-10-03T22:32:13.281Z,28.08
2022-10-03T22:35:09.093Z,27.45
2022-10-03T22:37:36.338Z,28.98
2022-10-03T22:40:04.656Z,31.10
2022-10-03T22:42:39.177Z,29.58
2022-10-03T22:45:08.074Z,33.20
2022-10-03T22:47:37.637Z,30.48
2022-10-03T22:50:10.677Z,25.80
2022-10-03T22:52:46.074Z,30.90
2022-10-03T22:55:15.757Z,34.20
2022-10-03T22:57:44.456Z,32.10
2022-10-03T23:00:35.555Z,28.70
2022-10-03T23:03:16.859Z,34.40
2022-10-03T23:06:15.844Z,28.52
2022-10-03T23:09:20.603Z,28.33
2022-10-03T23:11:51.323Z,27.48
2022-10-03T23:14:31.683Z,26.85
2022-10-03T23:17:11.071Z,29.25
2022-10-03T23:19:43.799Z,29.02
2022-10-03T23:22:17.384Z,39.45
2022-10-03T23:24:50.692Z,30.08
2022-10-03T23:27:55.739Z,36.70
2022-10-03T23:30:25.704Z,35.60
2022-10-03T23:32:54.636Z,36.75
2022-10-03T23:35:30.622Z,32.00
2022-10-03T23:37:59.386Z,31.73
2022-10-03T23:40:47.221Z,36.22
2022-10-03T23:43:39.933Z,32.80
2022-10-03T23:46:15.057Z,34.47
2022-10-03T23:48:53.429Z,33.80
2022-10-03T23:51:26.934Z,31.95
2022-10-03T23:54:02.446Z,32.33
2022-10-03T23:58:57.634Z,37.58
